createdAt,value
2017-09-22T11:26:07.860Z,932.99
2017-09-22T11:26:20.869Z,933.01
2017-09-22T11:26:33.547Z,933.03
2017-09-22T11:26:47.093Z,933.03
2017-09-22T11:27:00.641Z,932.99
2017-09-22T11:27:13.547Z,932.95
2017-09-22T11:27:26.018Z,932.94
2017-09-22T11:27:38.941Z,932.95
2017-09-22T11:27:52.510Z,932.96
2017-09-22T11:28:05.560Z,932.97
2017-09-22T11:28:18.595Z,932.98
2017-09-22T11:28:32.117Z,932.98
2017-09-22T11:28:44.559Z,932.98
2017-09-22T11:28:56.526Z,932.97
2017-09-22T11:29:09.512Z,932.97
2017-09-22T11:29:22.480Z,933.03
2017-09-22T11:29:36.010Z,933.02
2017-09-22T11:29:49.601Z,932.98
2017-09-22T11:30:02.841Z,933
2017-09-22T11:30:15.843Z,932.98
2017-09-22T11:30:28.257Z,932.99
2017-09-22T11:30:41.245Z,932.98
2017-09-22T11:30:54.200Z,932.97
2017-09-22T11:31:06.677Z,932.96
2017-09-22T11:31:19.050Z,932.94
2017-09-22T11:31:32.558Z,932.97
2017-09-22T11:31:45.530Z,932.97
2017-09-22T11:31:58.996Z,932.98
2017-09-22T11:32:11.438Z,932.98
2017-09-22T11:32:23.890Z,933
2017-09-22T11:32:36.844Z,933
2017-09-22T11:32:49.875Z,933.03
2017-09-22T11:33:02.906Z,933.01
2017-09-22T11:33:15.319Z,933.01
2017-09-22T11:33:27.776Z,933.07
2017-09-22T11:33:41.282Z,933.07
2017-09-22T11:33:54.256Z,933.01
2017-09-22T11:34:06.650Z,933.04
2017-09-22T11:34:19.120Z,933.05
2017-09-22T11:34:32.121Z,933.03
2017-09-22T11:34:45.102Z,933.04
2017-09-22T11:34:58.614Z,933.05
2017-09-22T11:35:12.154Z,933.04
2017-09-22T11:35:25.089Z,933.04
2017-09-22T11:35:38.085Z,933.01
2017-09-22T11:35:51.587Z,932.99
2017-09-22T11:36:04.097Z,933.01
2017-09-22T11:36:17.385Z,932.99
2017-09-22T11:36:30.871Z,933
2017-09-22T11:36:43.867Z,933.02
2017-09-22T11:36:57.430Z,932.99
2017-09-22T11:37:11.007Z,932.99
2017-09-22T11:37:24.501Z,933.02
2017-09-22T11:37:38.048Z,932.95
2017-09-22T11:37:51.034Z,932.99
2017-09-22T11:38:04.568Z,933
2017-09-22T11:38:18.099Z,933.01
2017-09-22T11:38:31.160Z,933.01
2017-09-22T11:38:44.101Z,932.97
2017-09-22T11:38:57.641Z,932.98
2017-09-22T11:39:11.162Z,933.02
2017-09-22T11:39:24.145Z,932.98
2017-09-22T11:39:37.622Z,933.01
2017-09-22T11:39:50.603Z,932.99
2017-09-22T11:40:04.134Z,932.99
2017-09-22T11:40:17.157Z,933
2017-09-22T11:40:30.597Z,933
2017-09-22T11:40:44.155Z,933
2017-09-22T11:40:57.141Z,932.98
2017-09-22T11:41:10.143Z,932.98
2017-09-22T11:41:23.596Z,933.04
2017-09-22T11:41:36.059Z,933.03
2017-09-22T11:41:49.591Z,933.03
2017-09-22T11:42:02.568Z,933.01
2017-09-22T11:42:15.055Z,933.02
2017-09-22T11:42:28.563Z,932.97
2017-09-22T11:42:41.020Z,932.98
2017-09-22T11:42:54.518Z,932.98
2017-09-22T11:43:07.531Z,932.97
2017-09-22T11:43:21.094Z,932.98
2017-09-22T11:43:34.595Z,933
2017-09-22T11:43:47.002Z,933
2017-09-22T11:44:00.053Z,932.94
2017-09-22T11:44:12.967Z,932.98
2017-09-22T11:44:25.506Z,933.02
2017-09-22T11:44:37.954Z,932.98
2017-09-22T11:44:50.377Z,932.99
2017-09-22T11:45:02.831Z,933
2017-09-22T11:45:15.249Z,933.04
2017-09-22T11:45:27.675Z,933.02
2017-09-22T11:45:41.344Z,933.02
2017-09-22T11:45:54.836Z,932.99
2017-09-22T11:46:07.781Z,932.99
2017-09-22T11:46:21.214Z,932.98
2017-09-22T11:46:34.205Z,933.02
2017-09-22T11:46:47.250Z,932.97
2017-09-22T11:47:00.783Z,933
2017-09-22T11:47:13.799Z,932.99
2017-09-22T11:47:27.302Z,932.97
2017-09-22T11:47:40.488Z,932.98
2017-09-22T11:47:52.973Z,932.99
2017-09-22T11:48:05.954Z,932.99
2017-09-22T11:48:18.367Z,932.97
2017-09-22T11:48:31.873Z,932.95
2017-09-22T11:48:45.368Z,932.96
2017-09-22T11:48:58.850Z,932.95
2017-09-22T11:49:11.822Z,932.96
2017-09-22T11:49:25.633Z,932.98
2017-09-22T11:49:38.524Z,932.97
2017-09-22T11:49:51.512Z,932.96
2017-09-22T11:50:03.961Z,932.93
2017-09-22T11:50:17.510Z,932.93
2017-09-22T11:50:30.992Z,932.94
2017-09-22T11:50:44.477Z,932.94
2017-09-22T11:50:57.438Z,932.94
2017-09-22T11:51:10.424Z,932.97
2017-09-22T11:51:23.107Z,932.97
2017-09-22T11:51:36.669Z,932.96
2017-09-22T11:51:49.086Z,932.93
2017-09-22T11:52:02.628Z,932.93
2017-09-22T11:52:15.581Z,932.93
2017-09-22T11:52:29.092Z,932.95
2017-09-22T11:52:42.112Z,932.97
2017-09-22T11:52:55.642Z,932.97
2017-09-22T11:53:08.663Z,932.94
2017-09-22T11:53:22.133Z,932.97
2017-09-22T11:53:35.617Z,932.97
2017-09-22T11:53:49.123Z,932.95
2017-09-22T11:54:02.606Z,932.96
2017-09-22T11:54:15.572Z,932.98
2017-09-22T11:54:28.612Z,932.95
2017-09-22T11:54:42.071Z,932.95
2017-09-22T11:54:55.091Z,932.93
2017-09-22T11:55:08.052Z,932.94
2017-09-22T11:55:21.631Z,932.96
2017-09-22T11:55:34.563Z,932.97
2017-09-22T11:55:48.180Z,932.96
2017-09-22T11:56:01.156Z,932.98
2017-09-22T11:56:14.657Z,932.91
2017-09-22T11:56:27.580Z,932.93
2017-09-22T11:56:41.192Z,932.91
2017-09-22T11:56:53.700Z,932.95
2017-09-22T11:57:07.267Z,932.97
2017-09-22T11:57:20.280Z,932.94
2017-09-22T11:57:33.811Z,932.93
2017-09-22T11:57:47.407Z,932.96
2017-09-22T11:57:59.359Z,932.98
2017-09-22T11:58:12.359Z,932.93
2017-09-22T11:58:24.831Z,932.94
2017-09-22T11:58:37.217Z,932.98
2017-09-22T11:58:50.808Z,932.98
2017-09-22T11:59:03.840Z,932.95
2017-09-22T11:59:16.822Z,932.96
2017-09-22T11:59:30.388Z,932.95
2017-09-22T11:59:43.319Z,932.99
2017-09-22T11:59:56.866Z,932.98
2017-09-22T12:00:09.872Z,932.96
2017-09-22T12:00:22.835Z,932.98
2017-09-22T12:00:36.405Z,932.99
2017-09-22T12:00:48.811Z,933.01
2017-09-22T12:01:00.781Z,933
2017-09-22T12:01:13.776Z,932.97
2017-09-22T12:01:27.492Z,932.99
2017-09-22T12:01:40.993Z,933.01
2017-09-22T12:01:54.554Z,932.93
2017-09-22T12:02:08.050Z,932.96
2017-09-22T12:02:21.021Z,932.98
2017-09-22T12:02:33.426Z,933.01
2017-09-22T12:02:46.998Z,932.96
2017-09-22T12:02:59.950Z,933.03
2017-09-22T12:03:12.934Z,933.01
2017-09-22T12:03:25.922Z,933.01
2017-09-22T12:03:38.907Z,933.01
2017-09-22T12:03:51.856Z,933.05
2017-09-22T12:04:05.423Z,933.02
2017-09-22T12:04:18.481Z,933.04
2017-09-22T12:04:32.012Z,933.04
2017-09-22T12:04:45.503Z,933.02
2017-09-22T12:04:57.939Z,933.04
2017-09-22T12:05:10.987Z,933.03
2017-09-22T12:05:22.872Z,933.02
2017-09-22T12:05:36.519Z,933.08
2017-09-22T12:05:49.520Z,933.02
2017-09-22T12:06:03.122Z,933.02
2017-09-22T12:06:16.102Z,933.03
2017-09-22T12:06:29.813Z,933.07
2017-09-22T12:06:42.755Z,933.08
2017-09-22T12:06:56.297Z,933.06
2017-09-22T12:07:08.188Z,933.11
2017-09-22T12:07:21.184Z,933.05
2017-09-22T12:07:34.136Z,933.09
2017-09-22T12:07:47.672Z,933.1
2017-09-22T12:08:00.116Z,933.07
2017-09-22T12:08:13.067Z,933.05
2017-09-22T12:08:26.018Z,933.05
2017-09-22T12:08:38.981Z,933.06
2017-09-22T12:08:52.435Z,933.06
2017-09-22T12:09:05.413Z,933.11
2017-09-22T12:09:18.935Z,933.07
2017-09-22T12:09:32.495Z,933.07
2017-09-22T12:09:45.475Z,933.05
2017-09-22T12:09:58.451Z,933.06
2017-09-22T12:10:11.457Z,933.04
2017-09-22T12:10:23.871Z,933.03
2017-09-22T12:10:37.393Z,933.04
2017-09-22T12:10:50.929Z,933.03
2017-09-22T12:11:03.472Z,933.01
2017-09-22T12:11:16.989Z,933.03
2017-09-22T12:11:29.970Z,933.04
2017-09-22T12:11:42.600Z,933.03
2017-09-22T12:11:55.073Z,933.03
2017-09-22T12:12:08.613Z,933.04
2017-09-22T12:12:21.604Z,933.02
2017-09-22T12:12:35.119Z,932.99
2017-09-22T12:12:47.610Z,933.04
2017-09-22T12:13:01.136Z,933.03
2017-09-22T12:13:14.693Z,933.02
2017-09-22T12:13:28.330Z,933.02
2017-09-22T12:13:40.226Z,933.01
2017-09-22T12:13:53.778Z,933.02
2017-09-22T12:14:06.727Z,932.99
2017-09-22T12:14:19.717Z,932.99
2017-09-22T12:14:33.204Z,932.99
2017-09-22T12:14:45.630Z,933.02
2017-09-22T12:14:58.652Z,933
2017-09-22T12:15:11.156Z,932.98
2017-09-22T12:15:24.751Z,933
2017-09-22T12:15:38.299Z,933.01
2017-09-22T12:15:52.090Z,933
2017-09-22T12:16:05.639Z,932.96
2017-09-22T12:16:18.648Z,932.98
2017-09-22T12:16:31.641Z,932.99
2017-09-22T12:16:45.260Z,932.98
2017-09-22T12:16:58.723Z,932.93
2017-09-22T12:17:12.250Z,932.95
2017-09-22T12:17:25.665Z,932.98
2017-09-22T12:17:37.585Z,932.93
2017-09-22T12:17:50.539Z,932.96
2017-09-22T12:18:04.068Z,932.94
2017-09-22T12:18:16.500Z,932.95
2017-09-22T12:18:29.449Z,932.94
2017-09-22T12:18:42.407Z,932.93
2017-09-22T12:18:55.390Z,932.94
2017-09-22T12:19:08.293Z,932.92
2017-09-22T12:19:21.876Z,932.89
2017-09-22T12:19:34.359Z,932.91
2017-09-22T12:19:47.937Z,932.89
2017-09-22T12:20:01.432Z,932.89
2017-09-22T12:20:13.878Z,932.93
2017-09-22T12:20:26.365Z,932.9
2017-09-22T12:20:39.428Z,932.91
2017-09-22T12:20:52.418Z,932.88
2017-09-22T12:21:05.962Z,932.88
2017-09-22T12:21:18.380Z,932.88
2017-09-22T12:21:31.742Z,932.87
2017-09-22T12:21:44.750Z,932.86
2017-09-22T12:21:58.231Z,932.88
2017-09-22T12:22:11.207Z,932.85
2017-09-22T12:22:24.742Z,932.85
2017-09-22T12:22:36.113Z,932.87
2017-09-22T12:22:49.569Z,932.86
2017-09-22T12:23:03.177Z,932.84
2017-09-22T12:23:15.634Z,932.82
2017-09-22T12:23:28.584Z,932.83
2017-09-22T12:23:41.643Z,932.86
2017-09-22T12:23:54.635Z,932.87
2017-09-22T12:24:07.617Z,932.82
2017-09-22T12:24:21.104Z,932.86
2017-09-22T12:24:34.625Z,932.8
2017-09-22T12:24:48.205Z,932.81
2017-09-22T12:25:01.160Z,932.82
2017-09-22T12:25:14.140Z,932.79
2017-09-22T12:25:27.726Z,932.8
2017-09-22T12:25:40.162Z,932.77
2017-09-22T12:25:53.129Z,932.81
2017-09-22T12:26:06.070Z,932.79
2017-09-22T12:26:19.540Z,932.76
2017-09-22T12:26:33.033Z,932.76
2017-09-22T12:26:45.504Z,932.78
2017-09-22T12:26:58.481Z,932.8
2017-09-22T12:27:09.896Z,932.76
2017-09-22T12:27:21.239Z,932.78
2017-09-22T12:27:34.263Z,932.77
2017-09-22T12:27:47.757Z,932.73
2017-09-22T12:28:01.314Z,932.76
2017-09-22T12:28:14.878Z,932.75
2017-09-22T12:28:28.411Z,932.74
2017-09-22T12:28:41.069Z,932.72
2017-09-22T12:28:54.631Z,932.72
2017-09-22T12:29:08.180Z,932.71
2017-09-22T12:29:21.102Z,932.71
2017-09-22T12:29:32.983Z,932.69
2017-09-22T12:29:45.432Z,932.72
2017-09-22T12:29:58.459Z,932.68
2017-09-22T12:30:11.441Z,932.7
2017-09-22T12:30:25.012Z,932.69
2017-09-22T12:30:37.452Z,932.69
2017-09-22T12:30:51.017Z,932.69
2017-09-22T12:31:04.496Z,932.72
2017-09-22T12:31:17.437Z,932.71
2017-09-22T12:31:30.568Z,932.67
2017-09-22T12:31:43.624Z,932.66
2017-09-22T12:31:56.607Z,932.71
2017-09-22T12:32:09.647Z,932.71
2017-09-22T12:32:22.072Z,932.71
2017-09-22T12:32:35.097Z,932.72
2017-09-22T12:32:48.643Z,932.72
2017-09-22T12:33:01.689Z,932.68
2017-09-22T12:33:15.168Z,932.72
2017-09-22T12:33:27.654Z,932.68
2017-09-22T12:33:40.631Z,932.71
2017-09-22T12:33:54.198Z,932.72
2017-09-22T12:34:07.124Z,932.74
2017-09-22T12:34:20.181Z,932.74
2017-09-22T12:34:33.754Z,932.74
2017-09-22T12:34:46.142Z,932.72
2017-09-22T12:34:58.580Z,932.7
2017-09-22T12:35:11.654Z,932.68
2017-09-22T12:35:24.656Z,932.7
2017-09-22T12:35:38.156Z,932.72
2017-09-22T12:35:51.127Z,932.71
2017-09-22T12:36:04.666Z,932.7
2017-09-22T12:36:18.113Z,932.67
2017-09-22T12:36:31.945Z,932.67
2017-09-22T12:36:45.690Z,932.66
2017-09-22T12:36:58.728Z,932.67
2017-09-22T12:37:11.679Z,932.63
2017-09-22T12:37:24.621Z,932.65
2017-09-22T12:37:37.618Z,932.66
2017-09-22T12:37:51.139Z,932.65
2017-09-22T12:38:04.088Z,932.7
2017-09-22T12:38:17.569Z,932.68
2017-09-22T12:38:31.186Z,932.67
2017-09-22T12:38:44.193Z,932.68
2017-09-22T12:38:57.690Z,932.65
2017-09-22T12:39:11.185Z,932.63
2017-09-22T12:39:24.729Z,932.66
2017-09-22T12:39:36.096Z,932.68
2017-09-22T12:39:48.579Z,932.66
2017-09-22T12:40:02.081Z,932.65
2017-09-22T12:40:15.633Z,932.65
2017-09-22T12:40:28.046Z,932.64
2017-09-22T12:40:40.478Z,932.67
2017-09-22T12:40:53.506Z,932.66
2017-09-22T12:41:05.975Z,932.65
2017-09-22T12:41:17.886Z,932.63
2017-09-22T12:41:31.367Z,932.61
2017-09-22T12:41:44.874Z,932.65
2017-09-22T12:41:57.852Z,932.64
2017-09-22T12:42:11.373Z,932.66
2017-09-22T12:42:23.884Z,932.68
2017-09-22T12:42:36.879Z,932.69
2017-09-22T12:42:50.390Z,932.65
2017-09-22T12:43:02.833Z,932.66
2017-09-22T12:43:16.343Z,932.66
2017-09-22T12:43:29.352Z,932.65
2017-09-22T12:43:42.309Z,932.66
2017-09-22T12:43:55.931Z,932.62
2017-09-22T12:44:08.899Z,932.65
2017-09-22T12:44:22.446Z,932.63
2017-09-22T12:44:35.478Z,932.68
2017-09-22T12:44:48.483Z,932.66
2017-09-22T12:45:00.403Z,932.65
2017-09-22T12:45:13.399Z,932.66
2017-09-22T12:45:26.393Z,932.66
2017-09-22T12:45:38.363Z,932.65
2017-09-22T12:45:51.388Z,932.66
2017-09-22T12:46:04.356Z,932.67
2017-09-22T12:46:17.316Z,932.67
2017-09-22T12:46:30.279Z,932.63
2017-09-22T12:46:43.860Z,932.62
2017-09-22T12:46:56.813Z,932.65
2017-09-22T12:47:09.811Z,932.62
2017-09-22T12:47:23.424Z,932.66
2017-09-22T12:47:35.849Z,932.59
2017-09-22T12:47:48.334Z,932.61
2017-09-22T12:48:01.302Z,932.59
2017-09-22T12:48:14.788Z,932.64
2017-09-22T12:48:28.300Z,932.64
2017-09-22T12:48:41.263Z,932.62
2017-09-22T12:48:54.782Z,932.64
2017-09-22T12:49:08.315Z,932.63
2017-09-22T12:49:21.284Z,932.67
2017-09-22T12:49:34.770Z,932.64
2017-09-22T12:49:47.782Z,932.67
2017-09-22T12:50:01.317Z,932.63
2017-09-22T12:50:13.177Z,932.64
2017-09-22T12:50:25.641Z,932.66
2017-09-22T12:50:38.621Z,932.68
2017-09-22T12:50:51.075Z,932.64
2017-09-22T12:51:04.014Z,932.65
2017-09-22T12:51:17.567Z,932.67
2017-09-22T12:51:31.118Z,932.66
2017-09-22T12:51:44.080Z,932.64
2017-09-22T12:51:57.578Z,932.66
2017-09-22T12:52:10.531Z,932.65
2017-09-22T12:52:23.539Z,932.65
2017-09-22T12:52:37.078Z,932.63
2017-09-22T12:52:50.591Z,932.66
2017-09-22T12:53:03.537Z,932.64
2017-09-22T12:53:14.900Z,932.63
2017-09-22T12:53:27.881Z,932.63
2017-09-22T12:53:40.831Z,932.62
2017-09-22T12:53:53.770Z,932.66
2017-09-22T12:54:07.309Z,932.65
2017-09-22T12:54:20.245Z,932.64
2017-09-22T12:54:33.300Z,932.66
2017-09-22T12:54:46.821Z,932.65
2017-09-22T12:55:00.366Z,932.67
2017-09-22T12:55:13.306Z,932.64
2017-09-22T12:55:26.892Z,932.64
2017-09-22T12:55:39.844Z,932.65
2017-09-22T12:55:53.401Z,932.63
2017-09-22T12:56:06.928Z,932.65
2017-09-22T12:56:19.894Z,932.67
2017-09-22T12:56:32.897Z,932.65
2017-09-22T12:56:45.832Z,932.67
2017-09-22T12:56:59.379Z,932.63
2017-09-22T12:57:12.367Z,932.64
2017-09-22T12:57:25.363Z,932.64
2017-09-22T12:57:38.291Z,932.63
2017-09-22T12:57:51.829Z,932.59
2017-09-22T12:58:04.802Z,932.62
2017-09-22T12:58:17.808Z,932.58
2017-09-22T12:58:31.348Z,932.6
2017-09-22T12:58:43.280Z,932.59
2017-09-22T12:58:56.263Z,932.61
2017-09-22T12:59:09.230Z,932.61
2017-09-22T12:59:24.198Z,932.66
2017-09-22T12:59:37.204Z,932.61
2017-09-22T12:59:49.643Z,932.6
2017-09-22T13:00:03.172Z,932.6
2017-09-22T13:00:16.139Z,932.6
2017-09-22T13:00:29.191Z,932.6
2017-09-22T13:00:41.564Z,932.62
2017-09-22T13:00:53.472Z,932.6
2017-09-22T13:01:07.030Z,932.6
2017-09-22T13:01:20.037Z,932.61
2017-09-22T13:01:33.569Z,932.59
2017-09-22T13:01:47.069Z,932.56
2017-09-22T13:02:00.566Z,932.61
2017-09-22T13:02:12.943Z,932.6
2017-09-22T13:02:26.539Z,932.56
2017-09-22T13:02:38.997Z,932.58
2017-09-22T13:02:51.968Z,932.57
2017-09-22T13:03:04.436Z,932.61
2017-09-22T13:03:17.466Z,932.57
2017-09-22T13:03:30.971Z,932.57
2017-09-22T13:03:44.497Z,932.57
2017-09-22T13:03:57.478Z,932.55
2017-09-22T13:04:11.101Z,932.56
2017-09-22T13:04:24.604Z,932.58
2017-09-22T13:04:37.536Z,932.58
2017-09-22T13:04:51.006Z,932.53
2017-09-22T13:05:03.464Z,932.58
2017-09-22T13:05:15.375Z,932.54
2017-09-22T13:05:28.866Z,932.56
2017-09-22T13:05:41.307Z,932.52
2017-09-22T13:05:53.736Z,932.52
2017-09-22T13:06:05.696Z,932.52
2017-09-22T13:06:18.650Z,932.5
2017-09-22T13:06:32.217Z,932.52
2017-09-22T13:06:44.419Z,932.48
2017-09-22T13:06:57.981Z,932.52
2017-09-22T13:07:11.470Z,932.45
2017-09-22T13:07:23.924Z,932.48
2017-09-22T13:07:36.915Z,932.48
2017-09-22T13:07:50.398Z,932.5
2017-09-22T13:08:03.456Z,932.5
2017-09-22T13:08:16.372Z,932.48
2017-09-22T13:08:29.875Z,932.47
2017-09-22T13:08:43.380Z,932.48
2017-09-22T13:08:55.302Z,932.48
2017-09-22T13:09:08.303Z,932.51
2017-09-22T13:09:21.289Z,932.51
2017-09-22T13:09:34.234Z,932.47
2017-09-22T13:09:46.738Z,932.48
2017-09-22T13:10:00.250Z,932.43
2017-09-22T13:10:13.186Z,932.42
2017-09-22T13:10:26.775Z,932.42
2017-09-22T13:10:40.320Z,932.48
2017-09-22T13:10:53.863Z,932.46
2017-09-22T13:11:06.827Z,932.44
2017-09-22T13:11:19.800Z,932.42
2017-09-22T13:11:31.801Z,932.44
2017-09-22T13:11:44.888Z,932.48
2017-09-22T13:11:57.378Z,932.44
2017-09-22T13:12:09.818Z,932.45
2017-09-22T13:12:22.803Z,932.43
2017-09-22T13:12:35.832Z,932.45
2017-09-22T13:12:48.753Z,932.4
2017-09-22T13:13:01.146Z,932.43
2017-09-22T13:13:14.066Z,932.46
2017-09-22T13:13:27.633Z,932.4
2017-09-22T13:13:41.161Z,932.46
2017-09-22T13:13:54.160Z,932.41
2017-09-22T13:14:07.704Z,932.41
2017-09-22T13:14:20.719Z,932.45
2017-09-22T13:14:33.682Z,932.44
2017-09-22T13:14:47.207Z,932.47
2017-09-22T13:15:00.909Z,932.46
2017-09-22T13:15:13.363Z,932.48
2017-09-22T13:15:26.334Z,932.5
2017-09-22T13:15:39.391Z,932.49
2017-09-22T13:15:52.850Z,932.48
2017-09-22T13:16:06.591Z,932.47
2017-09-22T13:16:18.448Z,932.46
2017-09-22T13:16:31.917Z,932.44
2017-09-22T13:16:45.496Z,932.47
2017-09-22T13:16:57.952Z,932.43
2017-09-22T13:17:10.301Z,932.39
2017-09-22T13:17:23.844Z,932.46
2017-09-22T13:17:37.369Z,932.4
2017-09-22T13:17:50.905Z,932.43
2017-09-22T13:18:03.833Z,932.43
2017-09-22T13:18:15.724Z,932.43
2017-09-22T13:18:28.119Z,932.42
2017-09-22T13:18:40.045Z,932.45
2017-09-22T13:18:53.146Z,932.45
2017-09-22T13:19:06.699Z,932.46
2017-09-22T13:19:19.162Z,932.44
2017-09-22T13:19:32.684Z,932.48
2017-09-22T13:19:45.683Z,932.44
2017-09-22T13:19:58.657Z,932.45
2017-09-22T13:20:11.638Z,932.42
2017-09-22T13:20:24.106Z,932.45
2017-09-22T13:20:36.556Z,932.44
2017-09-22T13:20:48.989Z,932.48
2017-09-22T13:21:02.015Z,932.45
2017-09-22T13:21:15.494Z,932.44
2017-09-22T13:21:28.458Z,932.41
2017-09-22T13:21:41.480Z,932.43
2017-09-22T13:21:55.171Z,932.43
2017-09-22T13:22:07.111Z,932.45
2017-09-22T13:22:20.707Z,932.47
2017-09-22T13:22:34.201Z,932.45
2017-09-22T13:22:47.802Z,932.4
2017-09-22T13:23:00.326Z,932.45
2017-09-22T13:23:12.713Z,932.41
2017-09-22T13:23:25.730Z,932.47
2017-09-22T13:23:38.741Z,932.4
2017-09-22T13:23:51.200Z,932.42
2017-09-22T13:24:04.211Z,932.42
2017-09-22T13:24:16.641Z,932.41
2017-09-22T13:24:29.578Z,932.44
2017-09-22T13:24:42.537Z,932.42
2017-09-22T13:24:54.411Z,932.41
2017-09-22T13:25:07.916Z,932.43
2017-09-22T13:25:21.403Z,932.4
2017-09-22T13:25:34.955Z,932.42
2017-09-22T13:25:48.440Z,932.42
2017-09-22T13:26:01.925Z,932.41
2017-09-22T13:26:14.843Z,932.41
2017-09-22T13:26:28.355Z,932.38
2017-09-22T13:26:41.356Z,932.42
2017-09-22T13:26:54.550Z,932.38
2017-09-22T13:27:06.975Z,932.37
2017-09-22T13:27:19.940Z,932.34
2017-09-22T13:27:32.928Z,932.34
2017-09-22T13:27:45.390Z,932.36
2017-09-22T13:27:58.409Z,932.35
2017-09-22T13:28:12.022Z,932.35
2017-09-22T13:28:24.423Z,932.35
2017-09-22T13:28:37.907Z,932.33
2017-09-22T13:28:49.327Z,932.32
2017-09-22T13:29:01.780Z,932.32
2017-09-22T13:29:14.264Z,932.36
2017-09-22T13:29:27.671Z,932.34
2017-09-22T13:29:40.188Z,932.33
2017-09-22T13:29:52.667Z,932.31
2017-09-22T13:30:04.547Z,932.34
2017-09-22T13:30:18.053Z,932.32
2017-09-22T13:30:31.063Z,932.35
2017-09-22T13:30:44.007Z,932.33
2017-09-22T13:30:56.469Z,932.35
2017-09-22T13:31:08.942Z,932.36
2017-09-22T13:31:21.359Z,932.34
2017-09-22T13:31:34.347Z,932.37
2017-09-22T13:31:47.963Z,932.37
2017-09-22T13:32:00.971Z,932.37
2017-09-22T13:32:14.020Z,932.37
2017-09-22T13:32:27.020Z,932.37
2017-09-22T13:32:39.474Z,932.39
2017-09-22T13:32:52.996Z,932.39
2017-09-22T13:33:05.964Z,932.35
2017-09-22T13:33:18.944Z,932.38
2017-09-22T13:33:32.130Z,932.39
2017-09-22T13:33:45.303Z,932.39
2017-09-22T13:33:57.721Z,932.37
2017-09-22T13:34:11.274Z,932.37
2017-09-22T13:34:24.773Z,932.35
2017-09-22T13:34:38.330Z,932.36
2017-09-22T13:34:51.847Z,932.38
2017-09-22T13:35:04.815Z,932.37
2017-09-22T13:35:18.325Z,932.39
2017-09-22T13:35:31.330Z,932.37
2017-09-22T13:35:43.796Z,932.38
2017-09-22T13:35:56.243Z,932.37
2017-09-22T13:36:09.221Z,932.39
2017-09-22T13:36:22.263Z,932.37
2017-09-22T13:36:34.628Z,932.4
2017-09-22T13:36:47.087Z,932.39
2017-09-22T13:37:00.527Z,932.38
2017-09-22T13:37:14.251Z,932.37
2017-09-22T13:37:27.816Z,932.36
2017-09-22T13:37:40.859Z,932.38
2017-09-22T13:37:53.830Z,932.41
2017-09-22T13:38:06.784Z,932.36
2017-09-22T13:38:18.183Z,932.33
2017-09-22T13:38:31.228Z,932.35
2017-09-22T13:38:43.691Z,932.39
2017-09-22T13:38:56.702Z,932.42
2017-09-22T13:39:10.268Z,932.35
2017-09-22T13:39:22.691Z,932.4
2017-09-22T13:39:36.229Z,932.36
2017-09-22T13:39:49.153Z,932.37
2017-09-22T13:40:02.687Z,932.32
2017-09-22T13:40:15.850Z,932.36
2017-09-22T13:40:29.044Z,932.33
2017-09-22T13:40:42.062Z,932.34
2017-09-22T13:40:55.123Z,932.33
2017-09-22T13:41:06.992Z,932.34
2017-09-22T13:41:19.418Z,932.34
2017-09-22T13:41:32.413Z,932.38
2017-09-22T13:41:44.868Z,932.36
2017-09-22T13:41:56.744Z,932.34
2017-09-22T13:42:08.703Z,932.31
2017-09-22T13:42:22.214Z,932.33
2017-09-22T13:42:35.822Z,932.31
2017-09-22T13:42:47.190Z,932.3
2017-09-22T13:42:59.675Z,932.3
2017-09-22T13:43:12.095Z,932.3
2017-09-22T13:43:25.047Z,932.27
2017-09-22T13:43:37.478Z,932.3
2017-09-22T13:43:49.910Z,932.31
2017-09-22T13:44:02.867Z,932.26
2017-09-22T13:44:15.289Z,932.26
2017-09-22T13:44:28.272Z,932.23
2017-09-22T13:44:41.264Z,932.23
2017-09-22T13:44:54.772Z,932.23
2017-09-22T13:45:07.807Z,932.19
2017-09-22T13:45:20.824Z,932.2
2017-09-22T13:45:33.798Z,932.2
2017-09-22T13:45:45.731Z,932.21
2017-09-22T13:45:59.273Z,932.22
2017-09-22T13:46:12.305Z,932.22
2017-09-22T13:46:25.842Z,932.22
2017-09-22T13:46:38.856Z,932.22
2017-09-22T13:46:51.791Z,932.21
2017-09-22T13:47:04.733Z,932.19
2017-09-22T13:47:17.764Z,932.18
2017-09-22T13:47:31.353Z,932.16
2017-09-22T13:47:44.334Z,932.18
2017-09-22T13:47:57.841Z,932.16
2017-09-22T13:48:10.261Z,932.16
2017-09-22T13:48:23.830Z,932.15
2017-09-22T13:48:36.259Z,932.15
2017-09-22T13:48:49.783Z,932.16
2017-09-22T13:49:03.274Z,932.12
2017-09-22T13:49:15.667Z,932.13
2017-09-22T13:49:27.044Z,932.12
2017-09-22T13:49:39.540Z,932.13
2017-09-22T13:49:52.565Z,932.12
2017-09-22T13:50:05.625Z,932.13
2017-09-22T13:50:19.213Z,932.12
2017-09-22T13:50:31.147Z,932.13
2017-09-22T13:50:44.151Z,932.11
2017-09-22T13:50:57.694Z,932.13
2017-09-22T13:51:11.184Z,932.11
2017-09-22T13:51:24.751Z,932.13
2017-09-22T13:51:37.762Z,932.12
2017-09-22T13:51:50.777Z,932.1
2017-09-22T13:52:04.074Z,932.08
2017-09-22T13:52:17.988Z,932.1
2017-09-22T13:52:30.939Z,932.13
2017-09-22T13:52:43.913Z,932.12
2017-09-22T13:52:56.873Z,932.11
2017-09-22T13:53:10.406Z,932.1
2017-09-22T13:53:23.354Z,932.06
2017-09-22T13:53:36.873Z,932.08
2017-09-22T13:53:50.426Z,932.09
2017-09-22T13:54:04.015Z,932.09
2017-09-22T13:54:17.593Z,932.06
2017-09-22T13:54:31.212Z,932.08
2017-09-22T13:54:44.792Z,932.05
2017-09-22T13:54:57.736Z,932.05
2017-09-22T13:55:09.764Z,932.08
2017-09-22T13:55:22.641Z,932.06
2017-09-22T13:55:36.158Z,932.02
2017-09-22T13:55:49.755Z,932.04
2017-09-22T13:56:02.422Z,932.06
2017-09-22T13:56:15.405Z,932.02
2017-09-22T13:56:28.379Z,932.02
2017-09-22T13:56:41.868Z,932.04
2017-09-22T13:56:54.886Z,932.04
2017-09-22T13:57:08.108Z,932
2017-09-22T13:57:21.656Z,931.99
2017-09-22T13:57:35.166Z,932
2017-09-22T13:57:47.644Z,932
2017-09-22T13:58:00.614Z,931.99
2017-09-22T13:58:13.528Z,932.01
2017-09-22T13:58:27.018Z,931.98
2017-09-22T13:58:40.024Z,931.97
2017-09-22T13:58:53.524Z,932.01
2017-09-22T13:59:07.015Z,931.96
2017-09-22T13:59:19.989Z,931.98
2017-09-22T13:59:32.995Z,931.95
2017-09-22T13:59:45.922Z,931.96
2017-09-22T13:59:59.404Z,931.93
2017-09-22T14:00:11.800Z,931.9
2017-09-22T14:00:25.388Z,931.97
2017-09-22T14:00:38.421Z,931.94
2017-09-22T14:00:51.671Z,931.97
2017-09-22T14:01:05.248Z,931.94
2017-09-22T14:01:18.271Z,931.95
2017-09-22T14:01:31.760Z,931.97
2017-09-22T14:01:45.301Z,931.96
2017-09-22T14:01:58.303Z,931.96
2017-09-22T14:02:10.301Z,931.97
2017-09-22T14:02:23.869Z,931.95
2017-09-22T14:02:37.463Z,931.95
2017-09-22T14:02:50.979Z,931.95
2017-09-22T14:03:03.480Z,931.97
2017-09-22T14:03:15.998Z,931.99
2017-09-22T14:03:29.491Z,931.98
2017-09-22T14:03:41.404Z,931.96
2017-09-22T14:03:53.858Z,931.93
2017-09-22T14:04:06.873Z,931.96
2017-09-22T14:04:20.381Z,931.94
2017-09-22T14:04:32.837Z,931.92
2017-09-22T14:04:46.286Z,931.88
2017-09-22T14:04:59.270Z,931.93
2017-09-22T14:05:12.271Z,931.92
2017-09-22T14:05:25.788Z,931.92
2017-09-22T14:05:38.831Z,931.89
2017-09-22T14:05:51.282Z,931.91
2017-09-22T14:06:04.818Z,931.9
2017-09-22T14:06:17.785Z,931.91
2017-09-22T14:06:30.849Z,931.94
2017-09-22T14:06:42.777Z,931.89
2017-09-22T14:06:54.686Z,931.92
2017-09-22T14:07:08.785Z,931.9
2017-09-22T14:07:22.284Z,931.9
2017-09-22T14:07:35.229Z,931.93
2017-09-22T14:07:48.282Z,931.94
2017-09-22T14:08:01.313Z,931.93
2017-09-22T14:08:13.277Z,931.95
2017-09-22T14:08:26.288Z,931.95
2017-09-22T14:08:39.789Z,931.93
2017-09-22T14:08:52.753Z,931.89
2017-09-22T14:09:06.400Z,931.92
2017-09-22T14:09:19.375Z,931.92